sensor_id;sensor_type;location;lat;lon;timestamp;temperature;humidity
16485;DHT22;8353;47.856;12.344;2023-02-17T00:01:47;9.50;99.90
16485;DHT22;8353;47.856;12.344;2023-02-17T00:04:18;9.50;99.90
16485;DHT22;8353;47.856;12.344;2023-02-17T00:06:48;9.50;99.90
16485;DHT22;8353;47.856;12.344;2023-02-17T00:09:19;9.40;99.90
16485;DHT22;8353;47.856;12.344;2023-02-17T00:11:51;9.30;99.90
16485;DHT22;8353;47.856;12.344;2023-02-17T00:14:21;9.40;99.90
16485;DHT22;8353;47.856;12.344;2023-02-17T00:16:52;9.40;99.90
16485;DHT22;8353;47.856;12.344;2023-02-17T00:19:23;9.50;99.90
16485;DHT22;8353;47.856;12.344;2023-02-17T00:21:55;9.40;99.90
16485;DHT22;8353;47.856;12.344;2023-02-17T00:24:28;9.40;99.90
16485;DHT22;8353;47.856;12.344;2023-02-17T00:27:00;9.50;99.90
16485;DHT22;8353;47.856;12.344;2023-02-17T00:29:31;9.40;99.90
16485;DHT22;8353;47.856;12.344;2023-02-17T00:32:02;9.40;99.90
16485;DHT22;8353;47.856;12.344;2023-02-17T00:34:33;9.40;99.90
16485;DHT22;8353;47.856;12.344;2023-02-17T00:37:03;9.40;99.90
16485;DHT22;8353;47.856;12.344;2023-02-17T00:39:34;9.30;99.90
16485;DHT22;8353;47.856;12.344;2023-02-17T00:42:06;9.40;99.90
16485;DHT22;8353;47.856;12.344;2023-02-17T00:44:37;9.50;99.90
16485;DHT22;8353;47.856;12.344;2023-02-17T00:47:07;9.40;99.90
16485;DHT22;8353;47.856;12.344;2023-02-17T00:49:38;9.50;99.90
16485;DHT22;8353;47.856;12.344;2023-02-17T00:52:08;9.50;99.90
16485;DHT22;8353;47.856;12.344;2023-02-17T00:54:39;9.60;99.90
16485;DHT22;8353;47.856;12.344;2023-02-17T00:57:14;9.60;99.90
16485;DHT22;8353;47.856;12.344;2023-02-17T00:59:45;9.70;99.90
16485;DHT22;8353;47.856;12.344;2023-02-17T01:02:15;9.80;99.90
16485;DHT22;8353;47.856;12.344;2023-02-17T01:04:46;9.90;99.90
16485;DHT22;8353;47.856;12.344;2023-02-17T01:07:16;9.90;99.90
16485;DHT22;8353;47.856;12.344;2023-02-17T01:09:47;9.90;99.90
16485;DHT22;8353;47.856;12.344;2023-02-17T01:12:18;10.00;99.90
16485;DHT22;8353;47.856;12.344;2023-02-17T01:14:49;10.10;99.90
16485;DHT22;8353;47.856;12.344;2023-02-17T01:17:20;10.10;99.90
16485;DHT22;8353;47.856;12.344;2023-02-17T01:19:50;10.10;99.90
16485;DHT22;8353;47.856;12.344;2023-02-17T01:22:21;10.20;99.90
16485;DHT22;8353;47.856;12.344;2023-02-17T01:24:51;10.20;99.90
16485;DHT22;8353;47.856;12.344;2023-02-17T01:27:24;10.30;99.90
16485;DHT22;8353;47.856;12.344;2023-02-17T01:29:54;10.20;99.90
16485;DHT22;8353;47.856;12.344;2023-02-17T01:32:24;10.20;99.90
16485;DHT22;8353;47.856;12.344;2023-02-17T01:34:55;10.10;99.90
16485;DHT22;8353;47.856;12.344;2023-02-17T01:37:25;10.10;99.90
16485;DHT22;8353;47.856;12.344;2023-02-17T01:39:55;10.10;99.90
16485;DHT22;8353;47.856;12.344;2023-02-17T01:42:27;10.10;99.90
16485;DHT22;8353;47.856;12.344;2023-02-17T01:45:38;10.10;99.90
16485;DHT22;8353;47.856;12.344;2023-02-17T01:48:11;10.10;99.90
16485;DHT22;8353;47.856;12.344;2023-02-17T01:50:46;10.10;99.90
16485;DHT22;8353;47.856;12.344;2023-02-17T01:53:20;10.00;99.90
16485;DHT22;8353;47.856;12.344;2023-02-17T01:55:52;10.10;99.90
16485;DHT22;8353;47.856;12.344;2023-02-17T01:58:25;10.10;99.90
16485;DHT22;8353;47.856;12.344;2023-02-17T02:00:59;10.10;99.90
16485;DHT22;8353;47.856;12.344;2023-02-17T02:03:32;10.10;99.90
16485;DHT22;8353;47.856;12.344;2023-02-17T02:06:07;10.10;99.90
16485;DHT22;8353;47.856;12.344;2023-02-17T02:08:58;10.10;99.90
16485;DHT22;8353;47.856;12.344;2023-02-17T02:11:31;10.00;99.90
16485;DHT22;8353;47.856;12.344;2023-02-17T02:14:04;10.10;99.90
16485;DHT22;8353;47.856;12.344;2023-02-17T02:16:44;10.10;99.90
16485;DHT22;8353;47.856;12.344;2023-02-17T02:19:44;10.10;99.90
16485;DHT22;8353;47.856;12.344;2023-02-17T02:22:39;10.00;99.90
16485;DHT22;8353;47.856;12.344;2023-02-17T02:25:29;9.90;99.90
16485;DHT22;8353;47.856;12.344;2023-02-17T02:28:09;10.00;99.90
16485;DHT22;8353;47.856;12.344;2023-02-17T02:31:05;9.90;99.90
16485;DHT22;8353;47.856;12.344;2023-02-17T02:33:41;9.90;99.90
16485;DHT22;8353;47.856;12.344;2023-02-17T02:36:18;9.90;99.90
16485;DHT22;8353;47.856;12.344;2023-02-17T02:38:53;9.90;99.90
16485;DHT22;8353;47.856;12.344;2023-02-17T02:41:31;9.90;99.90
16485;DHT22;8353;47.856;12.344;2023-02-17T02:44:04;10.00;99.90
16485;DHT22;8353;47.856;12.344;2023-02-17T02:46:35;9.90;99.90
16485;DHT22;8353;47.856;12.344;2023-02-17T02:49:07;10.00;99.90
16485;DHT22;8353;47.856;12.344;2023-02-17T02:51:44;10.00;99.90
16485;DHT22;8353;47.856;12.344;2023-02-17T02:54:35;10.00;99.90
16485;DHT22;8353;47.856;12.344;2023-02-17T02:57:23;10.00;99.90
16485;DHT22;8353;47.856;12.344;2023-02-17T03:00:05;10.00;99.90
16485;DHT22;8353;47.856;12.344;2023-02-17T03:02:43;9.90;99.90
16485;DHT22;8353;47.856;12.344;2023-02-17T03:05:22;9.90;99.90
16485;DHT22;8353;47.856;12.344;2023-02-17T03:07:58;9.90;99.90
16485;DHT22;8353;47.856;12.344;2023-02-17T03:10:31;9.90;99.90
16485;DHT22;8353;47.856;12.344;2023-02-17T03:13:02;9.80;99.90
16485;DHT22;8353;47.856;12.344;2023-02-17T03:15:33;9.90;99.90
16485;DHT22;8353;47.856;12.344;2023-02-17T03:18:04;9.90;99.90
16485;DHT22;8353;47.856;12.344;2023-02-17T03:20:38;9.90;99.90
16485;DHT22;8353;47.856;12.344;2023-02-17T03:23:10;9.90;99.90
16485;DHT22;8353;47.856;12.344;2023-02-17T03:25:41;9.90;99.90
16485;DHT22;8353;47.856;12.344;2023-02-17T03:28:13;9.90;99.90
16485;DHT22;8353;47.856;12.344;2023-02-17T03:30:43;9.80;99.90
16485;DHT22;8353;47.856;12.344;2023-02-17T03:33:14;9.80;99.90
16485;DHT22;8353;47.856;12.344;2023-02-17T03:35:46;9.80;99.90
16485;DHT22;8353;47.856;12.344;2023-02-17T03:38:17;9.80;99.90
16485;DHT22;8353;47.856;12.344;2023-02-17T03:40:47;10.00;99.90
16485;DHT22;8353;47.856;12.344;2023-02-17T03:43:18;10.10;99.90
16485;DHT22;8353;47.856;12.344;2023-02-17T03:45:49;10.20;99.90
16485;DHT22;8353;47.856;12.344;2023-02-17T03:48:19;10.30;99.90
16485;DHT22;8353;47.856;12.344;2023-02-17T03:50:51;10.20;99.90
16485;DHT22;8353;47.856;12.344;2023-02-17T03:53:22;10.40;99.90
16485;DHT22;8353;47.856;12.344;2023-02-17T03:55:52;10.60;99.90
16485;DHT22;8353;47.856;12.344;2023-02-17T03:58:22;10.60;99.90
16485;DHT22;8353;47.856;12.344;2023-02-17T04:00:52;10.60;99.90
16485;DHT22;8353;47.856;12.344;2023-02-17T04:03:23;10.70;99.90
16485;DHT22;8353;47.856;12.344;2023-02-17T04:05:55;10.80;99.90
16485;DHT22;8353;47.856;12.344;2023-02-17T04:08:25;10.80;99.90
16485;DHT22;8353;47.856;12.344;2023-02-17T04:10:58;10.80;99.90
16485;DHT22;8353;47.856;12.344;2023-02-17T04:13:29;10.80;99.90
16485;DHT22;8353;47.856;12.344;2023-02-17T04:16:00;10.80;99.90
16485;DHT22;8353;47.856;12.344;2023-02-17T04:18:32;10.90;99.90
16485;DHT22;8353;47.856;12.344;2023-02-17T04:21:06;10.90;99.90
16485;DHT22;8353;47.856;12.344;2023-02-17T04:23:37;10.90;99.90
16485;DHT22;8353;47.856;12.344;2023-02-17T04:26:08;10.90;99.90
16485;DHT22;8353;47.856;12.344;2023-02-17T04:28:40;10.90;99.90
16485;DHT22;8353;47.856;12.344;2023-02-17T04:31:11;11.00;99.90
16485;DHT22;8353;47.856;12.344;2023-02-17T04:33:41;11.10;99.90
16485;DHT22;8353;47.856;12.344;2023-02-17T04:36:13;11.10;99.90
16485;DHT22;8353;47.856;12.344;2023-02-17T04:38:43;11.10;99.90
16485;DHT22;8353;47.856;12.344;2023-02-17T04:41:14;11.10;99.90
16485;DHT22;8353;47.856;12.344;2023-02-17T04:43:44;11.20;99.90
16485;DHT22;8353;47.856;12.344;2023-02-17T04:46:15;11.20;99.90
16485;DHT22;8353;47.856;12.344;2023-02-17T04:48:46;11.20;99.90
16485;DHT22;8353;47.856;12.344;2023-02-17T04:51:18;11.20;99.90
16485;DHT22;8353;47.856;12.344;2023-02-17T04:53:48;11.20;99.90
16485;DHT22;8353;47.856;12.344;2023-02-17T04:56:19;11.20;99.90
16485;DHT22;8353;47.856;12.344;2023-02-17T04:58:50;11.20;99.90
16485;DHT22;8353;47.856;12.344;2023-02-17T05:01:20;11.20;99.90
16485;DHT22;8353;47.856;12.344;2023-02-17T05:03:51;11.20;99.90
16485;DHT22;8353;47.856;12.344;2023-02-17T05:06:23;11.10;99.90
16485;DHT22;8353;47.856;12.344;2023-02-17T05:08:54;11.30;99.90
16485;DHT22;8353;47.856;12.344;2023-02-17T05:11:24;11.30;99.90
16485;DHT22;8353;47.856;12.344;2023-02-17T05:13:54;11.30;99.90
16485;DHT22;8353;47.856;12.344;2023-02-17T05:16:25;11.20;99.90
16485;DHT22;8353;47.856;12.344;2023-02-17T05:18:56;11.20;99.90
16485;DHT22;8353;47.856;12.344;2023-02-17T05:21:28;11.20;99.90
16485;DHT22;8353;47.856;12.344;2023-02-17T05:23:59;11.30;99.90
16485;DHT22;8353;47.856;12.344;2023-02-17T05:26:30;11.20;99.90
16485;DHT22;8353;47.856;12.344;2023-02-17T05:29:00;11.30;99.90
16485;DHT22;8353;47.856;12.344;2023-02-17T05:31:32;11.30;99.90
16485;DHT22;8353;47.856;12.344;2023-02-17T05:34:03;11.40;99.90
16485;DHT22;8353;47.856;12.344;2023-02-17T05:36:35;11.20;99.90
16485;DHT22;8353;47.856;12.344;2023-02-17T05:39:06;11.40;99.90
16485;DHT22;8353;47.856;12.344;2023-02-17T05:41:36;11.40;99.90
16485;DHT22;8353;47.856;12.344;2023-02-17T05:44:07;11.40;99.90
16485;DHT22;8353;47.856;12.344;2023-02-17T05:46:38;11.40;99.90
16485;DHT22;8353;47.856;12.344;2023-02-17T05:49:08;11.30;99.90
16485;DHT22;8353;47.856;12.344;2023-02-17T05:51:40;11.30;99.90
16485;DHT22;8353;47.856;12.344;2023-02-17T05:54:11;11.40;99.90
16485;DHT22;8353;47.856;12.344;2023-02-17T05:56:42;11.40;99.90
16485;DHT22;8353;47.856;12.344;2023-02-17T05:59:13;11.30;99.90
16485;DHT22;8353;47.856;12.344;2023-02-17T06:01:43;11.30;99.90
16485;DHT22;8353;47.856;12.344;2023-02-17T06:04:14;11.30;99.90
16485;DHT22;8353;47.856;12.344;2023-02-17T06:06:46;11.10;99.90
16485;DHT22;8353;47.856;12.344;2023-02-17T06:09:16;11.10;99.90
16485;DHT22;8353;47.856;12.344;2023-02-17T06:11:47;11.10;99.90
16485;DHT22;8353;47.856;12.344;2023-02-17T06:14:17;11.00;99.90
16485;DHT22;8353;47.856;12.344;2023-02-17T06:16:48;11.00;99.90
16485;DHT22;8353;47.856;12.344;2023-02-17T06:19:19;10.90;99.90
16485;DHT22;8353;47.856;12.344;2023-02-17T06:21:51;10.90;99.90
16485;DHT22;8353;47.856;12.344;2023-02-17T06:24:21;10.90;99.90
16485;DHT22;8353;47.856;12.344;2023-02-17T06:26:52;10.90;99.90
16485;DHT22;8353;47.856;12.344;2023-02-17T06:29:22;10.90;99.90
16485;DHT22;8353;47.856;12.344;2023-02-17T06:31:53;10.80;99.90
16485;DHT22;8353;47.856;12.344;2023-02-17T06:34:23;10.90;99.90
16485;DHT22;8353;47.856;12.344;2023-02-17T06:36:55;10.90;99.90
16485;DHT22;8353;47.856;12.344;2023-02-17T06:39:26;10.90;99.90
16485;DHT22;8353;47.856;12.344;2023-02-17T06:41:57;10.90;99.90
16485;DHT22;8353;47.856;12.344;2023-02-17T06:44:28;10.80;99.90
16485;DHT22;8353;47.856;12.344;2023-02-17T06:46:59;10.90;99.90
16485;DHT22;8353;47.856;12.344;2023-02-17T06:49:30;10.90;99.90
16485;DHT22;8353;47.856;12.344;2023-02-17T06:52:02;10.90;99.90
16485;DHT22;8353;47.856;12.344;2023-02-17T06:54:33;10.90;99.90
16485;DHT22;8353;47.856;12.344;2023-02-17T06:57:04;10.90;99.90
16485;DHT22;8353;47.856;12.344;2023-02-17T06:59:34;10.90;99.90
16485;DHT22;8353;47.856;12.344;2023-02-17T07:02:05;11.00;99.90
16485;DHT22;8353;47.856;12.344;2023-02-17T07:04:36;11.00;99.90
16485;DHT22;8353;47.856;12.344;2023-02-17T07:07:09;11.00;99.90
16485;DHT22;8353;47.856;12.344;2023-02-17T07:09:40;10.90;99.90
16485;DHT22;8353;47.856;12.344;2023-02-17T07:12:12;10.90;99.90
16485;DHT22;8353;47.856;12.344;2023-02-17T07:14:43;10.90;99.90
16485;DHT22;8353;47.856;12.344;2023-02-17T07:17:14;10.90;99.90
16485;DHT22;8353;47.856;12.344;2023-02-17T07:19:44;10.90;99.90
16485;DHT22;8353;47.856;12.344;2023-02-17T07:22:16;11.00;99.90
16485;DHT22;8353;47.856;12.344;2023-02-17T07:24:47;10.90;99.90
16485;DHT22;8353;47.856;12.344;2023-02-17T07:27:17;11.00;99.90
16485;DHT22;8353;47.856;12.344;2023-02-17T07:29:48;11.00;99.90
16485;DHT22;8353;47.856;12.344;2023-02-17T07:32:19;11.10;99.90
16485;DHT22;8353;47.856;12.344;2023-02-17T07:34:50;11.10;99.90
16485;DHT22;8353;47.856;12.344;2023-02-17T07:37:22;11.10;99.90
16485;DHT22;8353;47.856;12.344;2023-02-17T07:39:53;11.20;99.90
16485;DHT22;8353;47.856;12.344;2023-02-17T07:42:26;11.20;99.90
16485;DHT22;8353;47.856;12.344;2023-02-17T07:44:57;11.30;99.90
16485;DHT22;8353;47.856;12.344;2023-02-17T07:47:28;11.30;99.90
16485;DHT22;8353;47.856;12.344;2023-02-17T07:50:00;11.40;99.90
16485;DHT22;8353;47.856;12.344;2023-02-17T07:52:32;11.40;99.90
16485;DHT22;8353;47.856;12.344;2023-02-17T07:55:04;11.40;99.90
16485;DHT22;8353;47.856;12.344;2023-02-17T07:57:35;11.50;99.90
16485;DHT22;8353;47.856;12.344;2023-02-17T08:00:07;11.60;99.90
16485;DHT22;8353;47.856;12.344;2023-02-17T08:02:37;11.70;99.90
16485;DHT22;8353;47.856;12.344;2023-02-17T08:05:08;11.80;99.90
16485;DHT22;8353;47.856;12.344;2023-02-17T08:07:41;11.70;99.90
16485;DHT22;8353;47.856;12.344;2023-02-17T08:10:11;11.70;99.90
16485;DHT22;8353;47.856;12.344;2023-02-17T08:12:59;11.70;99.90
16485;DHT22;8353;47.856;12.344;2023-02-17T08:15:47;11.70;99.90
16485;DHT22;8353;47.856;12.344;2023-02-17T08:18:18;11.70;99.90
16485;DHT22;8353;47.856;12.344;2023-02-17T08:20:48;11.70;99.90
16485;DHT22;8353;47.856;12.344;2023-02-17T08:23:21;11.70;99.90
16485;DHT22;8353;47.856;12.344;2023-02-17T08:25:52;11.70;99.90
16485;DHT22;8353;47.856;12.344;2023-02-17T08:28:22;11.70;99.90
16485;DHT22;8353;47.856;12.344;2023-02-17T08:30:53;11.80;99.90
16485;DHT22;8353;47.856;12.344;2023-02-17T08:33:23;11.90;99.90
16485;DHT22;8353;47.856;12.344;2023-02-17T08:35:54;11.80;99.90
16485;DHT22;8353;47.856;12.344;2023-02-17T08:38:26;11.80;99.90
16485;DHT22;8353;47.856;12.344;2023-02-17T08:40:57;11.90;99.90
16485;DHT22;8353;47.856;12.344;2023-02-17T08:43:27;12.00;99.90
16485;DHT22;8353;47.856;12.344;2023-02-17T08:45:58;12.10;99.90
16485;DHT22;8353;47.856;12.344;2023-02-17T08:48:29;12.20;99.90
16485;DHT22;8353;47.856;12.344;2023-02-17T08:50:59;12.30;99.90
16485;DHT22;8353;47.856;12.344;2023-02-17T08:53:32;12.30;99.90
16485;DHT22;8353;47.856;12.344;2023-02-17T08:56:04;12.30;99.90
16485;DHT22;8353;47.856;12.344;2023-02-17T08:58:36;12.30;99.90
16485;DHT22;8353;47.856;12.344;2023-02-17T09:01:07;12.40;99.90
16485;DHT22;8353;47.856;12.344;2023-02-17T09:03:39;12.40;99.90
16485;DHT22;8353;47.856;12.344;2023-02-17T09:06:09;12.60;99.90
16485;DHT22;8353;47.856;12.344;2023-02-17T09:08:46;12.60;99.90
16485;DHT22;8353;47.856;12.344;2023-02-17T09:11:17;12.60;99.90
16485;DHT22;8353;47.856;12.344;2023-02-17T09:13:49;12.60;99.90
16485;DHT22;8353;47.856;12.344;2023-02-17T09:16:20;12.60;99.90
16485;DHT22;8353;47.856;12.344;2023-02-17T09:18:53;12.60;99.90
16485;DHT22;8353;47.856;12.344;2023-02-17T09:21:23;12.60;99.90
16485;DHT22;8353;47.856;12.344;2023-02-17T09:23:56;12.60;99.90
16485;DHT22;8353;47.856;12.344;2023-02-17T09:26:27;12.60;99.90
16485;DHT22;8353;47.856;12.344;2023-02-17T09:28:58;12.60;99.90
16485;DHT22;8353;47.856;12.344;2023-02-17T09:31:30;12.70;99.90
16485;DHT22;8353;47.856;12.344;2023-02-17T09:34:01;12.70;99.90
16485;DHT22;8353;47.856;12.344;2023-02-17T09:36:36;12.70;99.90
16485;DHT22;8353;47.856;12.344;2023-02-17T09:39:08;12.70;99.90
16485;DHT22;8353;47.856;12.344;2023-02-17T09:41:43;12.70;99.90
16485;DHT22;8353;47.856;12.344;2023-02-17T09:44:19;12.80;99.90
16485;DHT22;8353;47.856;12.344;2023-02-17T09:46:55;12.80;99.90
16485;DHT22;8353;47.856;12.344;2023-02-17T09:49:29;12.80;99.90
16485;DHT22;8353;47.856;12.344;2023-02-17T09:52:05;12.90;99.90
16485;DHT22;8353;47.856;12.344;2023-02-17T09:54:42;12.90;99.90
16485;DHT22;8353;47.856;12.344;2023-02-17T09:57:17;13.00;99.90
16485;DHT22;8353;47.856;12.344;2023-02-17T09:59:52;13.10;99.90
16485;DHT22;8353;47.856;12.344;2023-02-17T10:02:28;13.30;99.90
16485;DHT22;8353;47.856;12.344;2023-02-17T10:05:06;13.20;99.90
16485;DHT22;8353;47.856;12.344;2023-02-17T10:07:43;13.30;99.90
16485;DHT22;8353;47.856;12.344;2023-02-17T10:10:20;13.30;99.90
16485;DHT22;8353;47.856;12.344;2023-02-17T10:12:54;13.30;99.90
16485;DHT22;8353;47.856;12.344;2023-02-17T10:15:29;13.40;99.90
16485;DHT22;8353;47.856;12.344;2023-02-17T10:18:07;13.50;99.90
16485;DHT22;8353;47.856;12.344;2023-02-17T10:20:41;13.60;99.90
16485;DHT22;8353;47.856;12.344;2023-02-17T10:23:17;13.60;99.90
16485;DHT22;8353;47.856;12.344;2023-02-17T10:26:01;13.60;99.90
16485;DHT22;8353;47.856;12.344;2023-02-17T10:28:48;13.50;99.90
16485;DHT22;8353;47.856;12.344;2023-02-17T10:31:27;13.50;99.90
16485;DHT22;8353;47.856;12.344;2023-02-17T10:34:02;13.50;99.90
16485;DHT22;8353;47.856;12.344;2023-02-17T10:36:43;13.40;99.90
16485;DHT22;8353;47.856;12.344;2023-02-17T10:39:27;13.50;99.90
16485;DHT22;8353;47.856;12.344;2023-02-17T10:42:01;13.60;99.90
16485;DHT22;8353;47.856;12.344;2023-02-17T10:44:35;13.60;99.90
16485;DHT22;8353;47.856;12.344;2023-02-17T10:47:06;13.70;99.90
16485;DHT22;8353;47.856;12.344;2023-02-17T10:49:41;13.60;99.90
16485;DHT22;8353;47.856;12.344;2023-02-17T10:52:16;13.60;99.90
16485;DHT22;8353;47.856;12.344;2023-02-17T10:54:51;13.60;99.90
16485;DHT22;8353;47.856;12.344;2023-02-17T10:57:29;13.50;99.90
16485;DHT22;8353;47.856;12.344;2023-02-17T11:00:04;13.50;99.90
16485;DHT22;8353;47.856;12.344;2023-02-17T11:02:40;13.50;99.90
16485;DHT22;8353;47.856;12.344;2023-02-17T11:05:20;13.50;99.90
16485;DHT22;8353;47.856;12.344;2023-02-17T11:07:55;13.60;99.90
16485;DHT22;8353;47.856;12.344;2023-02-17T11:10:28;13.80;99.90
16485;DHT22;8353;47.856;12.344;2023-02-17T11:13:01;13.80;99.90
16485;DHT22;8353;47.856;12.344;2023-02-17T11:15:35;13.90;99.90
16485;DHT22;8353;47.856;12.344;2023-02-17T11:18:09;13.90;99.90
16485;DHT22;8353;47.856;12.344;2023-02-17T11:20:41;14.00;99.90
16485;DHT22;8353;47.856;12.344;2023-02-17T11:23:22;14.00;99.90
16485;DHT22;8353;47.856;12.344;2023-02-17T11:26:06;13.90;99.90
16485;DHT22;8353;47.856;12.344;2023-02-17T11:28:39;14.10;99.90
16485;DHT22;8353;47.856;12.344;2023-02-17T11:31:22;14.10;99.90
16485;DHT22;8353;47.856;12.344;2023-02-17T11:33:53;14.20;99.90
16485;DHT22;8353;47.856;12.344;2023-02-17T11:36:26;14.20;99.90
16485;DHT22;8353;47.856;12.344;2023-02-17T11:38:57;14.30;99.90
16485;DHT22;8353;47.856;12.344;2023-02-17T11:41:37;14.30;99.90
16485;DHT22;8353;47.856;12.344;2023-02-17T11:44:10;14.30;99.90
16485;DHT22;8353;47.856;12.344;2023-02-17T11:46:46;14.40;99.90
16485;DHT22;8353;47.856;12.344;2023-02-17T11:49:35;14.40;99.90
16485;DHT22;8353;47.856;12.344;2023-02-17T11:52:19;14.60;99.90
16485;DHT22;8353;47.856;12.344;2023-02-17T11:55:02;14.70;99.90
16485;DHT22;8353;47.856;12.344;2023-02-17T11:57:40;14.70;99.90
16485;DHT22;8353;47.856;12.344;2023-02-17T12:00:18;14.80;99.90
16485;DHT22;8353;47.856;12.344;2023-02-17T12:03:07;14.80;99.90
16485;DHT22;8353;47.856;12.344;2023-02-17T12:05:50;14.90;99.90
16485;DHT22;8353;47.856;12.344;2023-02-17T12:08:32;14.80;99.90
16485;DHT22;8353;47.856;12.344;2023-02-17T12:11:15;14.90;99.90
16485;DHT22;8353;47.856;12.344;2023-02-17T12:13:56;14.80;99.90
16485;DHT22;8353;47.856;12.344;2023-02-17T12:16:38;14.90;99.90
16485;DHT22;8353;47.856;12.344;2023-02-17T12:19:31;14.80;99.90
16485;DHT22;8353;47.856;12.344;2023-02-17T12:22:14;14.80;99.90
16485;DHT22;8353;47.856;12.344;2023-02-17T12:25:05;14.80;99.90
16485;DHT22;8353;47.856;12.344;2023-02-17T12:30:49;14.80;99.90
16485;DHT22;8353;47.856;12.344;2023-02-17T12:33:37;14.80;99.90
16485;DHT22;8353;47.856;12.344;2023-02-17T12:36:14;14.90;99.90
16485;DHT22;8353;47.856;12.344;2023-02-17T12:38:48;14.90;99.90
16485;DHT22;8353;47.856;12.344;2023-02-17T12:41:25;15.10;99.90
16485;DHT22;8353;47.856;12.344;2023-02-17T12:44:01;15.00;99.90
16485;DHT22;8353;47.856;12.344;2023-02-17T12:46:37;15.10;99.90
16485;DHT22;8353;47.856;12.344;2023-02-17T12:49:12;15.10;99.90
16485;DHT22;8353;47.856;12.344;2023-02-17T12:51:46;15.20;99.90
16485;DHT22;8353;47.856;12.344;2023-02-17T12:54:21;15.20;99.90
16485;DHT22;8353;47.856;12.344;2023-02-17T12:56:58;15.30;99.90
16485;DHT22;8353;47.856;12.344;2023-02-17T12:59:34;15.30;99.90
16485;DHT22;8353;47.856;12.344;2023-02-17T13:02:08;15.20;99.90
16485;DHT22;8353;47.856;12.344;2023-02-17T13:04:42;15.20;99.90
16485;DHT22;8353;47.856;12.344;2023-02-17T13:10:20;15.40;99.90
16485;DHT22;8353;47.856;12.344;2023-02-17T13:12:59;15.30;99.90
16485;DHT22;8353;47.856;12.344;2023-02-17T13:15:33;15.40;99.90
16485;DHT22;8353;47.856;12.344;2023-02-17T13:18:09;15.30;99.90
16485;DHT22;8353;47.856;12.344;2023-02-17T13:20:54;15.40;99.90
16485;DHT22;8353;47.856;12.344;2023-02-17T13:23:37;15.30;99.90
16485;DHT22;8353;47.856;12.344;2023-02-17T13:26:33;15.50;99.90
16485;DHT22;8353;47.856;12.344;2023-02-17T13:29:30;15.50;99.90
16485;DHT22;8353;47.856;12.344;2023-02-17T13:32:02;15.50;99.90
16485;DHT22;8353;47.856;12.344;2023-02-17T13:34:35;15.50;99.90
16485;DHT22;8353;47.856;12.344;2023-02-17T13:37:23;15.50;99.90
16485;DHT22;8353;47.856;12.344;2023-02-17T13:39:56;15.40;99.90
16485;DHT22;8353;47.856;12.344;2023-02-17T13:42:35;15.50;99.90
16485;DHT22;8353;47.856;12.344;2023-02-17T13:45:19;15.40;99.90
16485;DHT22;8353;47.856;12.344;2023-02-17T13:47:52;15.40;99.90
16485;DHT22;8353;47.856;12.344;2023-02-17T13:50:31;15.40;99.90
16485;DHT22;8353;47.856;12.344;2023-02-17T13:53:20;15.30;99.90
16485;DHT22;8353;47.856;12.344;2023-02-17T13:55:52;15.30;99.90
16485;DHT22;8353;47.856;12.344;2023-02-17T13:58:25;15.40;99.90
16485;DHT22;8353;47.856;12.344;2023-02-17T14:01:00;15.40;99.90
16485;DHT22;8353;47.856;12.344;2023-02-17T14:03:33;15.50;99.90
16485;DHT22;8353;47.856;12.344;2023-02-17T14:06:05;15.50;99.90
16485;DHT22;8353;47.856;12.344;2023-02-17T14:08:39;15.60;99.90
16485;DHT22;8353;47.856;12.344;2023-02-17T14:11:12;15.60;99.90
16485;DHT22;8353;47.856;12.344;2023-02-17T14:13:45;15.60;99.90
16485;DHT22;8353;47.856;12.344;2023-02-17T14:16:28;15.50;99.90
16485;DHT22;8353;47.856;12.344;2023-02-17T14:19:04;15.50;99.90
16485;DHT22;8353;47.856;12.344;2023-02-17T14:21:35;15.50;99.90
16485;DHT22;8353;47.856;12.344;2023-02-17T14:24:22;15.50;99.90
16485;DHT22;8353;47.856;12.344;2023-02-17T14:26:56;15.40;99.90
16485;DHT22;8353;47.856;12.344;2023-02-17T14:29:39;15.40;99.90
16485;DHT22;8353;47.856;12.344;2023-02-17T14:32:26;15.30;99.90
16485;DHT22;8353;47.856;12.344;2023-02-17T14:35:20;15.30;99.90
16485;DHT22;8353;47.856;12.344;2023-02-17T14:37:51;15.30;99.90
16485;DHT22;8353;47.856;12.344;2023-02-17T14:40:23;15.30;99.90
16485;DHT22;8353;47.856;12.344;2023-02-17T14:42:54;15.30;99.90
16485;DHT22;8353;47.856;12.344;2023-02-17T14:45:25;15.20;99.90
16485;DHT22;8353;47.856;12.344;2023-02-17T14:47:56;15.20;99.90
16485;DHT22;8353;47.856;12.344;2023-02-17T14:50:27;15.10;99.90
16485;DHT22;8353;47.856;12.344;2023-02-17T14:52:58;15.00;99.90
16485;DHT22;8353;47.856;12.344;2023-02-17T14:55:32;15.10;99.90
16485;DHT22;8353;47.856;12.344;2023-02-17T14:58:03;15.10;99.90
16485;DHT22;8353;47.856;12.344;2023-02-17T15:00:34;15.10;99.90
16485;DHT22;8353;47.856;12.344;2023-02-17T15:03:04;15.10;99.90
16485;DHT22;8353;47.856;12.344;2023-02-17T15:05:34;15.10;99.90
16485;DHT22;8353;47.856;12.344;2023-02-17T15:08:05;15.10;99.90
16485;DHT22;8353;47.856;12.344;2023-02-17T15:10:39;15.10;99.90
16485;DHT22;8353;47.856;12.344;2023-02-17T15:13:13;15.10;99.90
16485;DHT22;8353;47.856;12.344;2023-02-17T15:15:44;14.90;99.90
16485;DHT22;8353;47.856;12.344;2023-02-17T15:18:17;15.00;99.90
16485;DHT22;8353;47.856;12.344;2023-02-17T15:20:49;15.00;99.90
16485;DHT22;8353;47.856;12.344;2023-02-17T15:23:22;14.90;99.90
16485;DHT22;8353;47.856;12.344;2023-02-17T15:25:55;14.90;99.90
16485;DHT22;8353;47.856;12.344;2023-02-17T15:28:26;14.80;99.90
16485;DHT22;8353;47.856;12.344;2023-02-17T15:30:57;14.80;99.90
16485;DHT22;8353;47.856;12.344;2023-02-17T15:33:27;14.70;99.90
16485;DHT22;8353;47.856;12.344;2023-02-17T15:35:57;14.60;99.90
16485;DHT22;8353;47.856;12.344;2023-02-17T15:38:28;14.50;99.90
16485;DHT22;8353;47.856;12.344;2023-02-17T15:41:00;14.50;99.90
16485;DHT22;8353;47.856;12.344;2023-02-17T15:43:34;14.50;99.90
16485;DHT22;8353;47.856;12.344;2023-02-17T15:46:10;14.50;99.90
16485;DHT22;8353;47.856;12.344;2023-02-17T15:48:42;14.40;99.90
16485;DHT22;8353;47.856;12.344;2023-02-17T15:51:14;14.40;99.90
16485;DHT22;8353;47.856;12.344;2023-02-17T15:53:47;14.40;99.90
16485;DHT22;8353;47.856;12.344;2023-02-17T15:56:22;14.40;99.90
16485;DHT22;8353;47.856;12.344;2023-02-17T15:58:53;14.40;99.90
16485;DHT22;8353;47.856;12.344;2023-02-17T16:01:27;14.40;99.90
16485;DHT22;8353;47.856;12.344;2023-02-17T16:03:58;14.30;99.90
16485;DHT22;8353;47.856;12.344;2023-02-17T16:06:28;14.40;99.90
16485;DHT22;8353;47.856;12.344;2023-02-17T16:08:59;14.30;99.90
16485;DHT22;8353;47.856;12.344;2023-02-17T16:11:32;14.30;99.90
16485;DHT22;8353;47.856;12.344;2023-02-17T16:14:04;14.30;99.90
16485;DHT22;8353;47.856;12.344;2023-02-17T16:16:35;14.40;99.90
16485;DHT22;8353;47.856;12.344;2023-02-17T16:19:09;14.30;99.90
16485;DHT22;8353;47.856;12.344;2023-02-17T16:21:41;14.30;99.90